sensor_id;sensor_type;location;lat;lon;timestamp;P1;durP1;ratioP1;P2;durP2;ratioP2
51288;SDS011;37372;52.294;5.152;2023-11-21T00:02:04;30.83;;;12.02;;
51288;SDS011;37372;52.294;5.152;2023-11-21T00:04:29;27.87;;;11.30;;
51288;SDS011;37372;52.294;5.152;2023-11-21T00:06:54;31.57;;;11.60;;
51288;SDS011;37372;52.294;5.152;2023-11-21T00:09:20;30.10;;;11.27;;
51288;SDS011;37372;52.294;5.152;2023-11-21T00:11:45;31.37;;;12.53;;
51288;SDS011;37372;52.294;5.152;2023-11-21T00:14:11;51.37;;;11.83;;
51288;SDS011;37372;52.294;5.152;2023-11-21T00:16:36;47.35;;;12.95;;
51288;SDS011;37372;52.294;5.152;2023-11-21T00:19:03;49.40;;;12.63;;
51288;SDS011;37372;52.294;5.152;2023-11-21T00:21:28;41.92;;;12.82;;
51288;SDS011;37372;52.294;5.152;2023-11-21T00:23:54;40.73;;;12.30;;
51288;SDS011;37372;52.294;5.152;2023-11-21T00:26:19;49.75;;;11.85;;
51288;SDS011;37372;52.294;5.152;2023-11-21T00:28:45;42.73;;;11.33;;
51288;SDS011;37372;52.294;5.152;2023-11-21T00:31:10;34.10;;;10.63;;
51288;SDS011;37372;52.294;5.152;2023-11-21T00:33:36;26.50;;;10.93;;
51288;SDS011;37372;52.294;5.152;2023-11-21T00:36:01;25.67;;;10.13;;
51288;SDS011;37372;52.294;5.152;2023-11-21T00:38:28;27.67;;;11.63;;
51288;SDS011;37372;52.294;5.152;2023-11-21T00:40:53;23.90;;;10.73;;
51288;SDS011;37372;52.294;5.152;2023-11-21T00:43:22;24.00;;;10.38;;
51288;SDS011;37372;52.294;5.152;2023-11-21T00:45:48;23.15;;;10.80;;
51288;SDS011;37372;52.294;5.152;2023-11-21T00:48:14;21.00;;;10.17;;
51288;SDS011;37372;52.294;5.152;2023-11-21T00:50:39;24.67;;;10.57;;
51288;SDS011;37372;52.294;5.152;2023-11-21T00:53:05;19.83;;;9.90;;
51288;SDS011;37372;52.294;5.152;2023-11-21T00:55:32;23.27;;;10.63;;
51288;SDS011;37372;52.294;5.152;2023-11-21T00:57:59;21.25;;;9.73;;
51288;SDS011;37372;52.294;5.152;2023-11-21T01:00:25;22.77;;;9.87;;
51288;SDS011;37372;52.294;5.152;2023-11-21T01:02:50;25.70;;;9.47;;
51288;SDS011;37372;52.294;5.152;2023-11-21T01:05:15;19.20;;;9.38;;
51288;SDS011;37372;52.294;5.152;2023-11-21T01:07:41;23.93;;;9.60;;
51288;SDS011;37372;52.294;5.152;2023-11-21T01:10:06;19.07;;;9.07;;
51288;SDS011;37372;52.294;5.152;2023-11-21T01:12:36;25.27;;;10.40;;
51288;SDS011;37372;52.294;5.152;2023-11-21T01:15:06;26.23;;;10.40;;
51288;SDS011;37372;52.294;5.152;2023-11-21T01:17:33;19.70;;;9.37;;
51288;SDS011;37372;52.294;5.152;2023-11-21T01:19:59;24.95;;;9.73;;
51288;SDS011;37372;52.294;5.152;2023-11-21T01:22:25;23.85;;;9.88;;
51288;SDS011;37372;52.294;5.152;2023-11-21T01:24:51;20.27;;;9.88;;
51288;SDS011;37372;52.294;5.152;2023-11-21T01:27:17;20.80;;;8.80;;
51288;SDS011;37372;52.294;5.152;2023-11-21T01:29:43;23.47;;;9.67;;
51288;SDS011;37372;52.294;5.152;2023-11-21T01:32:09;21.55;;;9.88;;
51288;SDS011;37372;52.294;5.152;2023-11-21T01:34:36;20.13;;;9.13;;
51288;SDS011;37372;52.294;5.152;2023-11-21T01:37:02;22.75;;;9.20;;
51288;SDS011;37372;52.294;5.152;2023-11-21T01:39:30;22.40;;;8.90;;
51288;SDS011;37372;52.294;5.152;2023-11-21T01:41:56;22.60;;;8.70;;
51288;SDS011;37372;52.294;5.152;2023-11-21T01:44:23;21.65;;;9.43;;
51288;SDS011;37372;52.294;5.152;2023-11-21T01:46:50;23.80;;;9.00;;
51288;SDS011;37372;52.294;5.152;2023-11-21T01:49:16;20.42;;;9.10;;
51288;SDS011;37372;52.294;5.152;2023-11-21T01:51:47;21.88;;;9.05;;
51288;SDS011;37372;52.294;5.152;2023-11-21T01:54:17;21.17;;;8.53;;
51288;SDS011;37372;52.294;5.152;2023-11-21T01:56:47;20.83;;;8.95;;
51288;SDS011;37372;52.294;5.152;2023-11-21T01:59:18;19.60;;;8.32;;
51288;SDS011;37372;52.294;5.152;2023-11-21T02:01:48;23.58;;;9.20;;
51288;SDS011;37372;52.294;5.152;2023-11-21T02:04:15;19.65;;;8.57;;
51288;SDS011;37372;52.294;5.152;2023-11-21T02:06:41;18.93;;;8.47;;
51288;SDS011;37372;52.294;5.152;2023-11-21T02:09:06;23.10;;;8.32;;
51288;SDS011;37372;52.294;5.152;2023-11-21T02:11:33;18.83;;;8.53;;
51288;SDS011;37372;52.294;5.152;2023-11-21T02:14:00;18.95;;;8.38;;
51288;SDS011;37372;52.294;5.152;2023-11-21T02:16:25;21.40;;;8.32;;
51288;SDS011;37372;52.294;5.152;2023-11-21T02:18:52;19.25;;;8.38;;
51288;SDS011;37372;52.294;5.152;2023-11-21T02:21:18;19.77;;;8.27;;
51288;SDS011;37372;52.294;5.152;2023-11-21T02:23:44;22.95;;;9.27;;
51288;SDS011;37372;52.294;5.152;2023-11-21T02:26:11;19.90;;;8.30;;
51288;SDS011;37372;52.294;5.152;2023-11-21T02:28:37;18.47;;;8.70;;
51288;SDS011;37372;52.294;5.152;2023-11-21T02:31:03;19.90;;;8.63;;
51288;SDS011;37372;52.294;5.152;2023-11-21T02:33:29;20.85;;;8.52;;
51288;SDS011;37372;52.294;5.152;2023-11-21T02:35:58;22.73;;;8.60;;
51288;SDS011;37372;52.294;5.152;2023-11-21T02:38:24;19.80;;;8.90;;
51288;SDS011;37372;52.294;5.152;2023-11-21T02:40:50;23.92;;;8.30;;
51288;SDS011;37372;52.294;5.152;2023-11-21T02:43:15;20.67;;;8.80;;
51288;SDS011;37372;52.294;5.152;2023-11-21T02:45:41;21.35;;;8.57;;
51288;SDS011;37372;52.294;5.152;2023-11-21T02:48:07;16.93;;;7.80;;
51288;SDS011;37372;52.294;5.152;2023-11-21T02:50:32;23.85;;;8.35;;
51288;SDS011;37372;52.294;5.152;2023-11-21T02:53:00;18.77;;;8.67;;
51288;SDS011;37372;52.294;5.152;2023-11-21T02:55:26;17.90;;;8.68;;
51288;SDS011;37372;52.294;5.152;2023-11-21T02:57:52;21.95;;;8.80;;
51288;SDS011;37372;52.294;5.152;2023-11-21T03:00:18;22.57;;;8.30;;
51288;SDS011;37372;52.294;5.152;2023-11-21T03:02:43;19.85;;;8.35;;
51288;SDS011;37372;52.294;5.152;2023-11-21T03:05:09;22.33;;;8.47;;
51288;SDS011;37372;52.294;5.152;2023-11-21T03:07:36;22.15;;;8.75;;
51288;SDS011;37372;52.294;5.152;2023-11-21T03:10:02;18.10;;;8.00;;
51288;SDS011;37372;52.294;5.152;2023-11-21T03:12:29;20.17;;;8.07;;
51288;SDS011;37372;52.294;5.152;2023-11-21T03:14:55;21.27;;;8.35;;
51288;SDS011;37372;52.294;5.152;2023-11-21T03:17:20;20.17;;;8.17;;
51288;SDS011;37372;52.294;5.152;2023-11-21T03:19:46;16.23;;;7.80;;
51288;SDS011;37372;52.294;5.152;2023-11-21T03:22:12;19.90;;;7.93;;
51288;SDS011;37372;52.294;5.152;2023-11-21T03:24:38;24.70;;;8.52;;
51288;SDS011;37372;52.294;5.152;2023-11-21T03:27:04;27.25;;;9.13;;
51288;SDS011;37372;52.294;5.152;2023-11-21T03:29:30;26.60;;;8.67;;
51288;SDS011;37372;52.294;5.152;2023-11-21T03:31:56;21.67;;;7.93;;
51288;SDS011;37372;52.294;5.152;2023-11-21T03:34:25;14.85;;;7.85;;
51288;SDS011;37372;52.294;5.152;2023-11-21T03:36:52;23.13;;;8.07;;
51288;SDS011;37372;52.294;5.152;2023-11-21T03:39:21;21.67;;;8.40;;
51288;SDS011;37372;52.294;5.152;2023-11-21T03:41:47;18.90;;;8.30;;
51288;SDS011;37372;52.294;5.152;2023-11-21T03:44:13;24.20;;;8.10;;
51288;SDS011;37372;52.294;5.152;2023-11-21T03:46:39;26.02;;;8.30;;
51288;SDS011;37372;52.294;5.152;2023-11-21T03:49:06;21.10;;;8.35;;
51288;SDS011;37372;52.294;5.152;2023-11-21T03:51:31;22.87;;;8.27;;
51288;SDS011;37372;52.294;5.152;2023-11-21T03:53:57;19.20;;;7.95;;
51288;SDS011;37372;52.294;5.152;2023-11-21T03:56:22;21.17;;;8.90;;
51288;SDS011;37372;52.294;5.152;2023-11-21T03:58:48;23.47;;;8.30;;
51288;SDS011;37372;52.294;5.152;2023-11-21T04:01:23;21.00;;;7.93;;
51288;SDS011;37372;52.294;5.152;2023-11-21T04:03:49;19.33;;;8.73;;
51288;SDS011;37372;52.294;5.152;2023-11-21T04:06:16;20.63;;;8.13;;
51288;SDS011;37372;52.294;5.152;2023-11-21T04:08:42;20.80;;;8.43;;
51288;SDS011;37372;52.294;5.152;2023-11-21T04:11:09;28.58;;;8.77;;
51288;SDS011;37372;52.294;5.152;2023-11-21T04:13:39;21.53;;;8.33;;
51288;SDS011;37372;52.294;5.152;2023-11-21T04:16:06;19.20;;;8.20;;
51288;SDS011;37372;52.294;5.152;2023-11-21T04:18:34;20.77;;;8.52;;
51288;SDS011;37372;52.294;5.152;2023-11-21T04:21:03;21.30;;;7.97;;
51288;SDS011;37372;52.294;5.152;2023-11-21T04:23:33;24.42;;;9.13;;
51288;SDS011;37372;52.294;5.152;2023-11-21T04:25:59;22.70;;;8.90;;
51288;SDS011;37372;52.294;5.152;2023-11-21T04:28:26;24.88;;;8.32;;
51288;SDS011;37372;52.294;5.152;2023-11-21T04:30:52;21.30;;;8.48;;
51288;SDS011;37372;52.294;5.152;2023-11-21T04:33:17;21.10;;;8.00;;
51288;SDS011;37372;52.294;5.152;2023-11-21T04:35:43;22.40;;;8.20;;
51288;SDS011;37372;52.294;5.152;2023-11-21T04:38:08;26.60;;;8.73;;
51288;SDS011;37372;52.294;5.152;2023-11-21T04:40:34;20.43;;;8.63;;
51288;SDS011;37372;52.294;5.152;2023-11-21T04:43:00;21.75;;;8.52;;
51288;SDS011;37372;52.294;5.152;2023-11-21T04:45:26;22.65;;;9.35;;
51288;SDS011;37372;52.294;5.152;2023-11-21T04:47:51;21.07;;;8.83;;
51288;SDS011;37372;52.294;5.152;2023-11-21T04:50:17;21.37;;;9.10;;
51288;SDS011;37372;52.294;5.152;2023-11-21T04:52:43;16.80;;;8.00;;
51288;SDS011;37372;52.294;5.152;2023-11-21T04:55:08;20.63;;;8.47;;
51288;SDS011;37372;52.294;5.152;2023-11-21T04:57:36;18.93;;;8.50;;
51288;SDS011;37372;52.294;5.152;2023-11-21T05:00:02;18.48;;;8.05;;
51288;SDS011;37372;52.294;5.152;2023-11-21T05:02:30;22.85;;;8.52;;
51288;SDS011;37372;52.294;5.152;2023-11-21T05:05:00;25.65;;;9.02;;
51288;SDS011;37372;52.294;5.152;2023-11-21T05:07:25;18.97;;;8.20;;
51288;SDS011;37372;52.294;5.152;2023-11-21T05:09:53;22.80;;;8.65;;
51288;SDS011;37372;52.294;5.152;2023-11-21T05:12:20;21.50;;;8.68;;
51288;SDS011;37372;52.294;5.152;2023-11-21T05:14:50;20.48;;;8.43;;
51288;SDS011;37372;52.294;5.152;2023-11-21T05:17:16;22.23;;;9.30;;
51288;SDS011;37372;52.294;5.152;2023-11-21T05:19:41;19.53;;;8.33;;
51288;SDS011;37372;52.294;5.152;2023-11-21T05:22:06;23.37;;;8.83;;
51288;SDS011;37372;52.294;5.152;2023-11-21T05:24:33;21.75;;;8.52;;
51288;SDS011;37372;52.294;5.152;2023-11-21T05:27:00;24.27;;;8.50;;
51288;SDS011;37372;52.294;5.152;2023-11-21T05:29:25;18.97;;;8.67;;
51288;SDS011;37372;52.294;5.152;2023-11-21T05:31:50;26.30;;;8.27;;
51288;SDS011;37372;52.294;5.152;2023-11-21T05:34:16;20.50;;;8.13;;
51288;SDS011;37372;52.294;5.152;2023-11-21T05:36:43;20.10;;;8.25;;
51288;SDS011;37372;52.294;5.152;2023-11-21T05:39:10;21.30;;;8.68;;
51288;SDS011;37372;52.294;5.152;2023-11-21T05:41:36;19.60;;;8.37;;
51288;SDS011;37372;52.294;5.152;2023-11-21T05:44:01;18.73;;;7.73;;
51288;SDS011;37372;52.294;5.152;2023-11-21T05:46:27;19.95;;;8.50;;
51288;SDS011;37372;52.294;5.152;2023-11-21T05:48:52;24.13;;;8.00;;
51288;SDS011;37372;52.294;5.152;2023-11-21T05:51:18;23.47;;;8.20;;
51288;SDS011;37372;52.294;5.152;2023-11-21T05:53:43;18.43;;;8.13;;
51288;SDS011;37372;52.294;5.152;2023-11-21T05:56:09;18.00;;;6.83;;
51288;SDS011;37372;52.294;5.152;2023-11-21T05:58:34;16.43;;;6.97;;
51288;SDS011;37372;52.294;5.152;2023-11-21T06:01:00;12.43;;;5.70;;
51288;SDS011;37372;52.294;5.152;2023-11-21T06:03:25;15.17;;;5.00;;
51288;SDS011;37372;52.294;5.152;2023-11-21T06:05:50;13.13;;;4.20;;
51288;SDS011;37372;52.294;5.152;2023-11-21T06:08:16;9.73;;;3.43;;
51288;SDS011;37372;52.294;5.152;2023-11-21T06:10:42;14.27;;;3.77;;
51288;SDS011;37372;52.294;5.152;2023-11-21T06:13:09;12.35;;;3.78;;
51288;SDS011;37372;52.294;5.152;2023-11-21T06:15:36;12.55;;;3.75;;
51288;SDS011;37372;52.294;5.152;2023-11-21T06:18:01;13.63;;;3.83;;
51288;SDS011;37372;52.294;5.152;2023-11-21T06:20:27;11.68;;;3.25;;
51288;SDS011;37372;52.294;5.152;2023-11-21T06:22:52;9.57;;;3.90;;
51288;SDS011;37372;52.294;5.152;2023-11-21T06:25:19;13.15;;;3.95;;
51288;SDS011;37372;52.294;5.152;2023-11-21T06:27:45;15.30;;;4.57;;
51288;SDS011;37372;52.294;5.152;2023-11-21T06:30:13;14.50;;;4.30;;
51288;SDS011;37372;52.294;5.152;2023-11-21T06:32:40;14.70;;;4.18;;
51288;SDS011;37372;52.294;5.152;2023-11-21T06:35:06;15.00;;;4.30;;
51288;SDS011;37372;52.294;5.152;2023-11-21T06:37:33;13.43;;;4.70;;
51288;SDS011;37372;52.294;5.152;2023-11-21T06:39:59;14.90;;;4.70;;
51288;SDS011;37372;52.294;5.152;2023-11-21T06:42:34;12.23;;;4.40;;
51288;SDS011;37372;52.294;5.152;2023-11-21T06:45:00;12.80;;;5.13;;
51288;SDS011;37372;52.294;5.152;2023-11-21T06:47:29;17.92;;;5.15;;
51288;SDS011;37372;52.294;5.152;2023-11-21T06:49:55;13.35;;;4.78;;
51288;SDS011;37372;52.294;5.152;2023-11-21T06:52:21;13.43;;;4.47;;
51288;SDS011;37372;52.294;5.152;2023-11-21T06:54:47;10.88;;;4.13;;
51288;SDS011;37372;52.294;5.152;2023-11-21T06:57:14;11.23;;;3.70;;
51288;SDS011;37372;52.294;5.152;2023-11-21T06:59:41;11.57;;;4.13;;
51288;SDS011;37372;52.294;5.152;2023-11-21T07:02:07;9.95;;;4.20;;
51288;SDS011;37372;52.294;5.152;2023-11-21T07:04:34;9.77;;;3.60;;
51288;SDS011;37372;52.294;5.152;2023-11-21T07:07:01;15.10;;;4.00;;
51288;SDS011;37372;52.294;5.152;2023-11-21T07:09:27;20.27;;;4.40;;
51288;SDS011;37372;52.294;5.152;2023-11-21T07:11:53;9.37;;;3.80;;
51288;SDS011;37372;52.294;5.152;2023-11-21T07:14:19;14.50;;;4.50;;
51288;SDS011;37372;52.294;5.152;2023-11-21T07:16:45;19.40;;;4.50;;
51288;SDS011;37372;52.294;5.152;2023-11-21T07:19:11;18.80;;;4.87;;
51288;SDS011;37372;52.294;5.152;2023-11-21T07:21:37;20.00;;;4.60;;
51288;SDS011;37372;52.294;5.152;2023-11-21T07:24:03;14.90;;;4.55;;
51288;SDS011;37372;52.294;5.152;2023-11-21T07:26:29;15.85;;;5.05;;
51288;SDS011;37372;52.294;5.152;2023-11-21T07:28:55;19.00;;;4.40;;
51288;SDS011;37372;52.294;5.152;2023-11-21T07:31:23;15.37;;;4.37;;
51288;SDS011;37372;52.294;5.152;2023-11-21T07:33:51;19.25;;;4.80;;
51288;SDS011;37372;52.294;5.152;2023-11-21T07:36:17;14.10;;;4.70;;
51288;SDS011;37372;52.294;5.152;2023-11-21T07:38:44;17.30;;;5.25;;
51288;SDS011;37372;52.294;5.152;2023-11-21T07:41:10;18.50;;;5.10;;
51288;SDS011;37372;52.294;5.152;2023-11-21T07:43:36;19.63;;;4.63;;
51288;SDS011;37372;52.294;5.152;2023-11-21T07:46:02;15.75;;;4.03;;
51288;SDS011;37372;52.294;5.152;2023-11-21T07:48:31;19.27;;;4.75;;
51288;SDS011;37372;52.294;5.152;2023-11-21T07:50:57;17.43;;;5.20;;
51288;SDS011;37372;52.294;5.152;2023-11-21T07:53:24;16.05;;;4.65;;
51288;SDS011;37372;52.294;5.152;2023-11-21T07:55:54;16.15;;;4.70;;
51288;SDS011;37372;52.294;5.152;2023-11-21T07:58:21;15.70;;;4.28;;
51288;SDS011;37372;52.294;5.152;2023-11-21T08:00:46;12.87;;;3.93;;
51288;SDS011;37372;52.294;5.152;2023-11-21T08:03:15;12.83;;;3.97;;
51288;SDS011;37372;52.294;5.152;2023-11-21T08:05:41;12.45;;;4.07;;
51288;SDS011;37372;52.294;5.152;2023-11-21T08:08:07;17.30;;;3.80;;
51288;SDS011;37372;52.294;5.152;2023-11-21T08:10:33;14.00;;;3.80;;
51288;SDS011;37372;52.294;5.152;2023-11-21T08:12:58;13.53;;;4.27;;
51288;SDS011;37372;52.294;5.152;2023-11-21T08:15:25;8.95;;;3.42;;
51288;SDS011;37372;52.294;5.152;2023-11-21T08:17:50;13.03;;;4.07;;
51288;SDS011;37372;52.294;5.152;2023-11-21T08:20:16;12.85;;;4.18;;
51288;SDS011;37372;52.294;5.152;2023-11-21T08:22:43;12.88;;;3.78;;
51288;SDS011;37372;52.294;5.152;2023-11-21T08:25:09;9.07;;;3.50;;
51288;SDS011;37372;52.294;5.152;2023-11-21T08:27:34;13.23;;;4.00;;
51288;SDS011;37372;52.294;5.152;2023-11-21T08:30:00;10.37;;;3.63;;
51288;SDS011;37372;52.294;5.152;2023-11-21T08:32:28;10.85;;;3.80;;
51288;SDS011;37372;52.294;5.152;2023-11-21T08:34:55;15.60;;;4.90;;
51288;SDS011;37372;52.294;5.152;2023-11-21T08:37:21;16.30;;;4.33;;
51288;SDS011;37372;52.294;5.152;2023-11-21T08:39:47;15.57;;;4.45;;
51288;SDS011;37372;52.294;5.152;2023-11-21T08:42:13;16.30;;;5.30;;
51288;SDS011;37372;52.294;5.152;2023-11-21T08:44:39;12.17;;;3.80;;
51288;SDS011;37372;52.294;5.152;2023-11-21T08:47:05;12.27;;;4.38;;
51288;SDS011;37372;52.294;5.152;2023-11-21T08:49:31;11.10;;;3.83;;
51288;SDS011;37372;52.294;5.152;2023-11-21T08:51:57;13.60;;;3.95;;
51288;SDS011;37372;52.294;5.152;2023-11-21T08:54:24;10.57;;;3.57;;
51288;SDS011;37372;52.294;5.152;2023-11-21T08:56:51;10.15;;;3.67;;
51288;SDS011;37372;52.294;5.152;2023-11-21T08:59:16;9.63;;;3.70;;
51288;SDS011;37372;52.294;5.152;2023-11-21T09:01:42;10.63;;;3.33;;
51288;SDS011;37372;52.294;5.152;2023-11-21T09:04:07;11.27;;;3.50;;
51288;SDS011;37372;52.294;5.152;2023-11-21T09:06:33;10.90;;;3.80;;
51288;SDS011;37372;52.294;5.152;2023-11-21T09:09:00;11.40;;;3.97;;
51288;SDS011;37372;52.294;5.152;2023-11-21T09:11:26;9.90;;;3.87;;
51288;SDS011;37372;52.294;5.152;2023-11-21T09:13:56;11.50;;;4.20;;
51288;SDS011;37372;52.294;5.152;2023-11-21T09:16:22;10.45;;;4.32;;
51288;SDS011;37372;52.294;5.152;2023-11-21T09:18:48;11.50;;;3.90;;
51288;SDS011;37372;52.294;5.152;2023-11-21T09:21:13;12.80;;;4.40;;
51288;SDS011;37372;52.294;5.152;2023-11-21T09:23:38;11.33;;;4.10;;
51288;SDS011;37372;52.294;5.152;2023-11-21T09:26:04;15.00;;;5.13;;
51288;SDS011;37372;52.294;5.152;2023-11-21T09:28:32;14.20;;;4.70;;
51288;SDS011;37372;52.294;5.152;2023-11-21T09:30:57;11.60;;;4.97;;
51288;SDS011;37372;52.294;5.152;2023-11-21T09:33:23;12.43;;;4.80;;
51288;SDS011;37372;52.294;5.152;2023-11-21T09:35:50;17.48;;;4.97;;
51288;SDS011;37372;52.294;5.152;2023-11-21T09:38:16;11.70;;;4.30;;
51288;SDS011;37372;52.294;5.152;2023-11-21T09:40:41;16.93;;;5.03;;
51288;SDS011;37372;52.294;5.152;2023-11-21T09:43:13;15.77;;;4.57;;
51288;SDS011;37372;52.294;5.152;2023-11-21T09:45:44;12.98;;;5.15;;
51288;SDS011;37372;52.294;5.152;2023-11-21T09:48:16;14.32;;;5.15;;
51288;SDS011;37372;52.294;5.152;2023-11-21T09:50:42;14.65;;;5.20;;
51288;SDS011;37372;52.294;5.152;2023-11-21T09:53:18;17.30;;;5.03;;
51288;SDS011;37372;52.294;5.152;2023-11-21T09:55:51;16.13;;;5.00;;
51288;SDS011;37372;52.294;5.152;2023-11-21T09:58:17;17.67;;;5.47;;
51288;SDS011;37372;52.294;5.152;2023-11-21T10:00:45;14.45;;;6.00;;
51288;SDS011;37372;52.294;5.152;2023-11-21T10:03:11;14.30;;;5.40;;
51288;SDS011;37372;52.294;5.152;2023-11-21T10:05:38;18.17;;;6.53;;
51288;SDS011;37372;52.294;5.152;2023-11-21T10:08:07;17.90;;;6.22;;
51288;SDS011;37372;52.294;5.152;2023-11-21T10:10:37;18.83;;;6.25;;
51288;SDS011;37372;52.294;5.152;2023-11-21T10:13:11;22.08;;;6.40;;
51288;SDS011;37372;52.294;5.152;2023-11-21T10:15:37;19.08;;;6.68;;
51288;SDS011;37372;52.294;5.152;2023-11-21T10:18:04;24.23;;;7.90;;
51288;SDS011;37372;52.294;5.152;2023-11-21T10:20:32;23.33;;;7.07;;
51288;SDS011;37372;52.294;5.152;2023-11-21T10:22:59;19.35;;;6.70;;
51288;SDS011;37372;52.294;5.152;2023-11-21T10:25:27;17.60;;;6.47;;
51288;SDS011;37372;52.294;5.152;2023-11-21T10:27:56;22.37;;;7.07;;
51288;SDS011;37372;52.294;5.152;2023-11-21T10:30:35;19.65;;;6.47;;
51288;SDS011;37372;52.294;5.152;2023-11-21T10:33:02;19.08;;;6.97;;
51288;SDS011;37372;52.294;5.152;2023-11-21T10:35:38;21.63;;;7.27;;
51288;SDS011;37372;52.294;5.152;2023-11-21T10:38:19;15.93;;;6.60;;
51288;SDS011;37372;52.294;5.152;2023-11-21T10:40:49;18.58;;;6.95;;
51288;SDS011;37372;52.294;5.152;2023-11-21T10:43:16;16.48;;;6.38;;
51288;SDS011;37372;52.294;5.152;2023-11-21T10:45:43;17.48;;;6.57;;
51288;SDS011;37372;52.294;5.152;2023-11-21T10:48:09;16.90;;;7.00;;
51288;SDS011;37372;52.294;5.152;2023-11-21T10:50:42;20.92;;;7.13;;
51288;SDS011;37372;52.294;5.152;2023-11-21T10:53:12;19.83;;;7.55;;
51288;SDS011;37372;52.294;5.152;2023-11-21T10:55:38;14.75;;;6.10;;
51288;SDS011;37372;52.294;5.152;2023-11-21T10:58:04;16.33;;;6.70;;
51288;SDS011;37372;52.294;5.152;2023-11-21T11:00:34;17.10;;;5.72;;
51288;SDS011;37372;52.294;5.152;2023-11-21T11:02:59;12.90;;;5.45;;
51288;SDS011;37372;52.294;5.152;2023-11-21T11:05:26;14.18;;;5.13;;
51288;SDS011;37372;52.294;5.152;2023-11-21T11:08:05;18.23;;;5.70;;
51288;SDS011;37372;52.294;5.152;2023-11-21T11:10:33;15.23;;;5.43;;
51288;SDS011;37372;52.294;5.152;2023-11-21T11:12:59;13.75;;;5.40;;
51288;SDS011;37372;52.294;5.152;2023-11-21T11:15:26;14.40;;;5.40;;
51288;SDS011;37372;52.294;5.152;2023-11-21T11:17:52;13.75;;;5.22;;
51288;SDS011;37372;52.294;5.152;2023-11-21T11:20:22;14.45;;;5.38;;
51288;SDS011;37372;52.294;5.152;2023-11-21T11:23:04;11.30;;;4.85;;
51288;SDS011;37372;52.294;5.152;2023-11-21T11:25:47;14.47;;;5.20;;
51288;SDS011;37372;52.294;5.152;2023-11-21T11:28:20;13.43;;;4.88;;
51288;SDS011;37372;52.294;5.152;2023-11-21T11:31:05;12.02;;;4.40;;
51288;SDS011;37372;52.294;5.152;2023-11-21T11:36:36;14.95;;;5.00;;
51288;SDS011;37372;52.294;5.152;2023-11-21T11:41:57;20.85;;;6.85;;
51288;SDS011;37372;52.294;5.152;2023-11-21T11:47:14;23.15;;;8.48;;
51288;SDS011;37372;52.294;5.152;2023-11-21T11:52:48;25.10;;;8.40;;
51288;SDS011;37372;52.294;5.152;2023-11-21T11:55:20;24.58;;;8.85;;
51288;SDS011;37372;52.294;5.152;2023-11-21T11:57:48;26.55;;;8.77;;
51288;SDS011;37372;52.294;5.152;2023-11-21T12:00:22;24.27;;;8.20;;
51288;SDS011;37372;52.294;5.152;2023-11-21T12:03:02;26.42;;;8.25;;
51288;SDS011;37372;52.294;5.152;2023-11-21T12:05:29;27.63;;;8.40;;
51288;SDS011;37372;52.294;5.152;2023-11-21T12:07:58;25.20;;;8.70;;
51288;SDS011;37372;52.294;5.152;2023-11-21T12:10:36;27.25;;;8.32;;
51288;SDS011;37372;52.294;5.152;2023-11-21T12:13:09;29.50;;;8.45;;
51288;SDS011;37372;52.294;5.152;2023-11-21T12:15:38;24.00;;;7.88;;
51288;SDS011;37372;52.294;5.152;2023-11-21T12:18:06;21.97;;;7.57;;
51288;SDS011;37372;52.294;5.152;2023-11-21T12:20:32;19.08;;;7.20;;
51288;SDS011;37372;52.294;5.152;2023-11-21T12:23:03;25.50;;;8.10;;
51288;SDS011;37372;52.294;5.152;2023-11-21T12:25:30;25.80;;;8.40;;
51288;SDS011;37372;52.294;5.152;2023-11-21T12:27:58;26.17;;;9.13;;
51288;SDS011;37372;52.294;5.152;2023-11-21T12:30:25;33.97;;;9.63;;
51288;SDS011;37372;52.294;5.152;2023-11-21T12:32:58;26.88;;;9.52;;
51288;SDS011;37372;52.294;5.152;2023-11-21T12:35:25;29.90;;;9.88;;
51288;SDS011;37372;52.294;5.152;2023-11-21T12:37:52;27.33;;;9.80;;
51288;SDS011;37372;52.294;5.152;2023-11-21T12:40:19;25.13;;;9.33;;
51288;SDS011;37372;52.294;5.152;2023-11-21T12:42:48;28.13;;;9.02;;
51288;SDS011;37372;52.294;5.152;2023-11-21T12:47:50;27.48;;;8.70;;
51288;SDS011;37372;52.294;5.152;2023-11-21T12:50:21;24.10;;;8.85;;
51288;SDS011;37372;52.294;5.152;2023-11-21T12:52:59;24.90;;;8.20;;
51288;SDS011;37372;52.294;5.152;2023-11-21T12:55:25;23.75;;;8.15;;
51288;SDS011;37372;52.294;5.152;2023-11-21T12:57:54;22.83;;;8.32;;
51288;SDS011;37372;52.294;5.152;2023-11-21T13:00:27;20.55;;;8.02;;
51288;SDS011;37372;52.294;5.152;2023-11-21T13:02:55;24.15;;;8.20;;
51288;SDS011;37372;52.294;5.152;2023-11-21T13:05:25;19.73;;;7.50;;
51288;SDS011;37372;52.294;5.152;2023-11-21T13:07:51;21.88;;;8.65;;
51288;SDS011;37372;52.294;5.152;2023-11-21T13:10:19;18.35;;;7.35;;
51288;SDS011;37372;52.294;5.152;2023-11-21T13:12:51;18.52;;;7.28;;
51288;SDS011;37372;52.294;5.152;2023-11-21T13:15:17;20.23;;;7.60;;
51288;SDS011;37372;52.294;5.152;2023-11-21T13:17:45;22.67;;;8.07;;
51288;SDS011;37372;52.294;5.152;2023-11-21T13:20:11;20.77;;;7.20;;
51288;SDS011;37372;52.294;5.152;2023-11-21T13:22:48;20.77;;;7.40;;
51288;SDS011;37372;52.294;5.152;2023-11-21T13:25:16;20.02;;;7.47;;
51288;SDS011;37372;52.294;5.152;2023-11-21T13:27:43;20.55;;;7.38;;
51288;SDS011;37372;52.294;5.152;2023-11-21T13:30:11;24.05;;;7.85;;
51288;SDS011;37372;52.294;5.152;2023-11-21T13:32:40;21.73;;;7.40;;
51288;SDS011;37372;52.294;5.152;2023-11-21T13:35:06;19.53;;;7.87;;
51288;SDS011;37372;52.294;5.152;2023-11-21T13:37:33;20.90;;;7.93;;
51288;SDS011;37372;52.294;5.152;2023-11-21T13:39:59;20.92;;;7.40;;
51288;SDS011;37372;52.294;5.152;2023-11-21T13:42:25;18.92;;;6.85;;
51288;SDS011;37372;52.294;5.152;2023-11-21T13:44:56;17.93;;;6.90;;
51288;SDS011;37372;52.294;5.152;2023-11-21T13:47:22;17.67;;;7.03;;
51288;SDS011;37372;52.294;5.152;2023-11-21T13:49:50;17.30;;;7.03;;
51288;SDS011;37372;52.294;5.152;2023-11-21T13:52:16;20.23;;;6.90;;
51288;SDS011;37372;52.294;5.152;2023-11-21T13:54:42;17.75;;;6.70;;
51288;SDS011;37372;52.294;5.152;2023-11-21T13:57:07;13.07;;;6.20;;
51288;SDS011;37372;52.294;5.152;2023-11-21T13:59:33;15.17;;;6.20;;
51288;SDS011;37372;52.294;5.152;2023-11-21T14:01:59;14.48;;;6.20;;
51288;SDS011;37372;52.294;5.152;2023-11-21T14:04:25;14.25;;;6.13;;
51288;SDS011;37372;52.294;5.152;2023-11-21T14:06:57;13.53;;;5.80;;
51288;SDS011;37372;52.294;5.152;2023-11-21T14:09:25;12.52;;;5.78;;
51288;SDS011;37372;52.294;5.152;2023-11-21T14:11:58;14.60;;;5.80;;
51288;SDS011;37372;52.294;5.152;2023-11-21T14:14:26;11.55;;;5.95;;
51288;SDS011;37372;52.294;5.152;2023-11-21T14:16:55;11.52;;;6.00;;
51288;SDS011;37372;52.294;5.152;2023-11-21T14:19:22;11.93;;;5.93;;
51288;SDS011;37372;52.294;5.152;2023-11-21T14:21:52;14.18;;;5.85;;
51288;SDS011;37372;52.294;5.152;2023-11-21T14:24:18;13.85;;;6.72;;
51288;SDS011;37372;52.294;5.152;2023-11-21T14:26:44;12.70;;;6.07;;
51288;SDS011;37372;52.294;5.152;2023-11-21T14:29:11;12.82;;;5.97;;
51288;SDS011;37372;52.294;5.152;2023-11-21T14:31:39;12.05;;;6.18;;
51288;SDS011;37372;52.294;5.152;2023-11-21T14:34:06;13.87;;;6.60;;
51288;SDS011;37372;52.294;5.152;2023-11-21T14:36:33;12.77;;;6.38;;
51288;SDS011;37372;52.294;5.152;2023-11-21T14:38:59;12.93;;;6.60;;
51288;SDS011;37372;52.294;5.152;2023-11-21T14:41:25;14.90;;;6.83;;
51288;SDS011;37372;52.294;5.152;2023-11-21T14:43:50;16.93;;;6.53;;
51288;SDS011;37372;52.294;5.152;2023-11-21T14:46:16;12.43;;;6.10;;
51288;SDS011;37372;52.294;5.152;2023-11-21T14:48:44;16.85;;;6.80;;